Updated20/04/2021 06:05 
 

GeoURL
free counters
Scottish Weather Network UK Weather Network Cumulus Top Weather Sites

Peebles Weather - Nearby METAR Reports

Raw Data, Raw Data Expanded

Ignore low humidity and Dew Point values. Something wrong with the sensor.
Daytime temperatures are in direct sunlight so may be higher than official air temperature values.
As with any other website, we log your IP address and browser type in the server logs for diagnostic reasons. Cookies are used to record visit time and gauges preferences. No personal information is stored or processed.

All times are in local time (GMT, or BST in summer) unless specified.

2021/04/20 04:50 EGPH 200450Z 29001KT CAVOK 04/02 Q1018
1.6°C 0.0 mm 0.0 mm 0.0 mm 0.0 mph 0.0 mph 1014.0 hPa 73% X-Ray Solar Flare Level
Planetary K-Index
Planetary K-Index History
Station Warn Rain Snow Flood Wind Ltng Heat Cold Glob Moon Temp Rain 1h Rain Tue Rain 24h Wind 10m Gust Pressure Hum Proton Levels

m First Quarter Cold F0-SE F: A: Kp:0 SSN:0

METAR Reports

 

EGPH - Edinburgh Airpor, United Kingdom
Distance from station: NNW 22mi, 36km
Updated: 20/04/2021 05:50
Clear
Clear
 Wind from WNW
Wind: WNW 1 mph , 2 km/h
Temperature: 4°C
Dew Point: 2°C
Humidity: 87%
Barometer: 1018 hPa
Summary: Clear
Visibility: greater than 7 miles , 10 km
2021/04/20 04:50 EGPH 200450Z 29001KT CAVOK 04/02 Q1018
EGOM - Spadeadam, United Kingdom
Distance from station: SSE 49mi, 79km
Updated: 19/04/2021 14:50
NOT Current
Partly cloudy
Partly cloudy
 Wind from SSW
Wind: SSW 5 mph , 7 km/h
Temperature: 14°C
Dew Point: 1°C
Humidity: 41%
Barometer: 1019 hPa
Clouds: Partly cloudy
Visibility: 6 miles , 10 km
Cloud details: Partly cloudy 1829 m
2021/04/19 13:50 EGOM 191350Z 20004KT 9999 SCT060 14/01 Q1019 BLU NOSIG
 
EGNC - Carlisle, United Kingdom
Distance from station: SSE 51mi, 82km
Updated: 27/03/2020 14:50
NOT Current
Mostly cloudy
Mostly cloudy
 Wind from ENE
Wind: ENE 9 mph , 15 km/h
Temperature: 11°C
Dew Point: 4°C
Humidity: 62%
Barometer: 1029 hPa
Clouds: Mostly cloudy
Visibility: 6 miles , 9 km
Cloud details: Few Clouds 1067 m
Mostly cloudy 1372 m
2020/03/27 14:50 EGNC 271450Z 07008KT 050V110 9000 FEW035 BKN045 11/04 Q1029
EGPF - Glasgow Airport, United Kingdom
Distance from station: WNW 51mi, 82km
Updated: 20/04/2021 05:50
Clear
Clear
 Wind from W
Wind: W 3 mph , 6 km/h
Temperature: 7°C
Dew Point: 5°C
Humidity: 87%
Barometer: 1018 hPa
Clouds: Clear
Visibility: 6 miles , 10 km
2021/04/20 04:50 EGPF 200450Z AUTO 26003KT 9999 NCD 07/05 Q1018
 
EGQL - Leuchars Raf, United Kingdom
Distance from station: NNE 53mi, 85km
Updated: 20/04/2021 05:50
Clear
Clear
 Wind from W
Wind: W 6 mph , 9 km/h
Temperature: 7°C
Wind Chill: 6°C
Dew Point: 3°C
Humidity: 76%
Barometer: 1018 hPa
Summary: Clear
Visibility: greater than 7 miles , 10 km
2021/04/20 04:50 EGQL 200450Z 27005KT CAVOK 07/03 Q1018 BLU
EGPK - Prestwick(Civ/Na, United Kingdom
Distance from station: W 55mi, 89km
Updated: 20/04/2021 05:50
Clear
Clear
 Wind from varies
Wind: varies 1 mph , 2 km/h
Temperature: 7°C
Dew Point: 3°C
Humidity: 76%
Barometer: 1018 hPa
Clouds: Clear
Visibility: 6 miles , 10 km
2021/04/20 04:50 EGPK 200450Z AUTO VRB01KT 9999 NCD 07/03 Q1018
 
EGPN - Dundee/Riverside, United Kingdom
Distance from station: N 56mi, 90km
Updated: 19/04/2021 15:50
NOT Current
Few Clouds
Few Clouds
 Wind from ESE
Wind: ESE 8 mph , 13 km/h
Temperature: 15°C
Dew Point: 6°C
Humidity: 55%
Barometer: 1019 hPa
Clouds: Few Clouds
Visibility: 6 miles , 10 km
Cloud details: Few Clouds 1219 m
2021/04/19 14:50 EGPN 191450Z 11007KT 9999 FEW040 15/06 Q1019
EGNT - Newcastle, United Kingdom
Distance from station: SE 72mi, 116km
Updated: 20/04/2021 05:50
Clear
Clear
 Wind from varies
Wind: varies 1 mph , 2 km/h
Temperature: 1°C
Dew Point: 1°C
Humidity: 100%
Barometer: 1018 hPa
Clouds: Clear
Visibility: 4 miles , 7 km
2021/04/20 04:50 EGNT 200450Z AUTO VRB01KT 7000 NCD 01/01 Q1018
 
EGNV - Tees-Side, United Kingdom
Distance from station: SE 104mi, 168km
Updated: 19/04/2021 21:50
NOT Current
Clear
Clear
 Wind from SSE
Wind: SSE 8 mph , 13 km/h
Temperature: 8°C
Wind Chill: 6°C
Dew Point: 3°C
Humidity: 71%
Barometer: 1019 hPa
Summary: Clear
Visibility: greater than 7 miles , 10 km
2021/04/19 20:50 EGNV 192050Z 15007KT CAVOK 08/03 Q1019
EGPD - Aberdeen/Dyce, United Kingdom
Distance from station: NNE 114mi, 183km
Updated: 20/04/2021 05:50
Light rain, Partly cloudy
Light rain, Partly cloudy
 Wind from varies
Wind: varies 2 mph , 4 km/h
Temperature: 5°C
Dew Point: 3°C
Humidity: 87%
Barometer: 1017 hPa
Summary: Light rain
Clouds: Partly cloudy
Visibility: 6 miles , 10 km
2021/04/20 04:50 EGPD 200450Z VRB02KT 9999 -RA NSC 05/03 Q1017 TEMPO RA
 
EGNS - Isle Of Man/Rona, United Kingdom
Distance from station: SSW 122mi, 197km
Updated: 20/04/2021 05:50
Clear
Clear
 Wind from N
Wind: N 7 mph , 11 km/h
Temperature: 6°C
Wind Chill: 4°C
Dew Point: 2°C
Humidity: 76%
Barometer: 1018 hPa
Summary: Clear
Visibility: greater than 7 miles , 10 km
2021/04/20 04:50 EGNS 200450Z 35006KT CAVOK 06/02 Q1018
EGAC - Belfast Harbour, United Kingdom
Distance from station: WSW 128mi, 206km
Updated: 20/04/2021 05:50
Light rain, Mostly cloudy
Light rain, Mostly cloudy
 Wind from S
Wind: S 1 mph , 2 km/h
Temperature: 8°C
Dew Point: 6°C
Humidity: 87%
Barometer: 1018 hPa
Summary: Light rain
Clouds: Mostly cloudy
Visibility: 3 miles , 5 km
Cloud details: Mostly cloudy 1128 m
2021/04/20 04:50 EGAC 200450Z AUTO 18001KT 5000 -RA BKN037/// 08/06 Q1018
 
EGPE - Inverness/Dalcro, United Kingdom
Distance from station: NNW 134mi, 215km
Updated: 20/04/2021 05:50
Partly cloudy
Partly cloudy
 Wind from SW
Wind: SW 9 mph , 15 km/h
Temperature: 7°C
Wind Chill: 4°C
Dew Point: 7°C
Humidity: 100%
Barometer: 1017 hPa
Clouds: Partly cloudy
Visibility: 6 miles , 10 km
2021/04/20 04:50 EGPE 200450Z 23008KT 9999 NSC 07/07 Q1017
XHTML 1.1 | CSS